Time;durP1;ratioP1;P1;durP2;ratioP2;P2;SDS_P1;SDS_P2;PMS_P1;PMS_P2;Temp;Humidity;BMP_temperature;BMP_pressure;BME280_temperature;BME280_humidity;BME280_pressure;Samples;Min_cycle;Max_cycle;Signal;HPM_P1;HPM_P2
2023/04/13 04:53:43;;;;;;;18.08;11.50;;;19.30;99.90;;;;;;4588555;19;20007;-30
2023/04/13 04:55:16;;;;;;;19.60;12.00;;;19.30;99.90;;;;;;4588970;19;20014;-30
2023/04/13 04:56:47;;;;;;;21.30;12.38;;;19.30;99.90;;;;;;4587885;19;20010;-30
2023/04/13 04:58:19;;;;;;;20.15;13.38;;;19.30;99.90;;;;;;4588466;19;20014;-30
2023/04/13 04:59:51;;;;;;;20.10;12.57;;;19.30;99.90;;;;;;4589198;19;20014;-30
2023/04/13 05:01:25;;;;;;;20.00;13.10;;;19.30;99.90;;;;;;4590250;19;20019;-30
2023/04/13 05:02:59;;;;;;;19.83;12.43;;;19.30;99.90;;;;;;4590415;19;20006;-30
2023/04/13 05:04:32;;;;;;;18.20;11.85;;;19.30;99.90;;;;;;4589168;19;20014;-31
2023/04/13 05:06:04;;;;;;;19.42;12.45;;;19.30;99.90;;;;;;4589913;19;20074;-31
2023/04/13 05:07:37;;;;;;;18.63;12.02;;;19.30;99.90;;;;;;4588493;19;20010;-30
2023/04/13 05:09:08;;;;;;;17.90;11.35;;;19.30;99.90;;;;;;4590407;19;20022;-30
2023/04/13 05:10:46;;;;;;;17.27;11.48;;;19.30;99.90;;;;;;4589480;19;20093;-30
2023/04/13 05:12:18;;;;;;;16.35;11.52;;;19.30;99.90;;;;;;4587420;19;20010;-30
2023/04/13 05:13:50;;;;;;;18.23;11.43;;;19.30;99.90;;;;;;4587056;19;20044;-30
2023/04/13 05:15:21;;;;;;;16.85;11.15;;;19.30;99.90;;;;;;4588401;19;20063;-30
2023/04/13 05:16:52;;;;;;;14.82;10.98;;;19.30;99.90;;;;;;4589563;19;20458;-30
2023/04/13 05:18:26;;;;;;;17.38;10.75;;;19.20;99.90;;;;;;4589317;19;20015;-29
2023/04/13 05:19:58;;;;;;;17.75;11.70;;;19.20;99.90;;;;;;4588359;19;20018;-30
2023/04/13 05:21:31;;;;;;;18.33;11.65;;;19.20;99.90;;;;;;4589391;19;20014;-29
2023/04/13 05:23:02;;;;;;;18.80;11.80;;;19.20;99.90;;;;;;4589787;19;20010;-30
2023/04/13 05:24:34;;;;;;;20.38;12.38;;;19.30;99.90;;;;;;4589910;19;20021;-30
2023/04/13 05:26:07;;;;;;;18.88;11.68;;;19.30;99.90;;;;;;4589596;19;20002;-29
2023/04/13 05:27:38;;;;;;;17.85;11.52;;;19.40;99.90;;;;;;4589441;19;20365;-29
2023/04/13 05:29:11;;;;;;;18.17;11.75;;;19.50;99.90;;;;;;4589671;19;20080;-29
2023/04/13 05:30:42;;;;;;;17.40;11.88;;;19.50;99.90;;;;;;4588148;19;20025;-31
2023/04/13 05:32:14;;;;;;;;;;;19.60;99.90;;;;;;4589075;19;20074;-31
2023/04/13 05:33:45;;;;;;;16.75;11.45;;;19.70;99.90;;;;;;4589103;19;19923;-30
2023/04/13 05:35:17;;;;;;;19.20;12.30;;;19.80;99.90;;;;;;4589617;19;20472;-30
2023/04/13 05:36:52;;;;;;;16.70;10.52;;;19.90;99.90;;;;;;4589888;19;20002;-30
2023/04/13 05:38:24;;;;;;;17.85;11.63;;;20.00;99.90;;;;;;4589261;19;20018;-30
2023/04/13 05:39:55;;;;;;;17.65;11.50;;;20.10;99.90;;;;;;4589253;19;20492;-31
2023/04/13 05:41:26;;;;;;;18.35;11.85;;;20.20;99.90;;;;;;4589635;19;20014;-30
2023/04/13 05:42:58;;;;;;;17.58;11.63;;;20.20;99.90;;;;;;4589888;19;20349;-30
2023/04/13 05:44:31;;;;;;;17.70;12.02;;;20.30;99.90;;;;;;4589619;19;20039;-30
2023/04/13 05:46:04;;;;;;;18.88;12.40;;;20.30;99.90;;;;;;4589106;19;20015;-30
2023/04/13 05:47:37;;;;;;;18.50;11.60;;;20.40;99.90;;;;;;4589567;19;20074;-31
2023/04/13 05:49:10;;;;;;;18.52;11.68;;;20.40;99.90;;;;;;4589437;19;20007;-30
2023/04/13 05:50:46;;;;;;;15.73;10.45;;;20.40;99.90;;;;;;4588164;19;20373;-30
2023/04/13 05:52:20;;;;;;;18.30;12.70;;;20.40;99.90;;;;;;4588040;19;20007;-30
2023/04/13 05:53:54;;;;;;;18.35;11.30;;;20.40;99.90;;;;;;4587890;19;20042;-31
2023/04/13 05:55:26;;;;;;;17.92;11.70;;;20.40;99.90;;;;;;4589727;19;20015;-30
2023/04/13 05:56:58;;;;;;;17.17;11.27;;;20.40;99.90;;;;;;4590496;19;20353;-30
2023/04/13 05:58:31;;;;;;;19.08;12.43;;;20.50;99.90;;;;;;4587978;19;20011;-30
2023/04/13 06:00:06;;;;;;;17.33;10.82;;;20.40;99.90;;;;;;4589926;19;20018;-30
2023/04/13 06:01:39;;;;;;;17.55;11.40;;;20.40;99.90;;;;;;4592562;19;20018;-31
2023/04/13 06:03:10;;;;;;;16.45;11.10;;;20.40;99.90;;;;;;4593479;19;20022;-30
2023/04/13 06:04:42;;;;;;;18.40;11.77;;;20.40;99.90;;;;;;4592734;19;20018;-30
2023/04/13 06:06:13;;;;;;;19.83;11.35;;;20.40;99.90;;;;;;4593747;19;20006;-30
2023/04/13 06:07:46;;;;;;;17.42;11.35;;;20.40;99.90;;;;;;4594283;19;20017;-30
2023/04/13 06:09:18;;;;;;;19.00;12.20;;;20.40;99.90;;;;;;4594579;19;20010;-30
2023/04/13 06:10:50;;;;;;;15.77;10.40;;;20.40;99.90;;;;;;4594966;19;20078;-30
2023/04/13 06:12:22;;;;;;;20.35;13.35;;;20.40;99.90;;;;;;4592653;19;20014;-30
2023/04/13 06:13:54;;;;;;;25.73;17.85;;;20.40;99.90;;;;;;4596289;19;20337;-30
2023/04/13 06:15:26;;;;;;;20.88;15.40;;;20.40;99.90;;;;;;4595728;19;20007;-30
2023/04/13 06:16:58;;;;;;;22.60;16.70;;;20.30;99.90;;;;;;4593915;19;20006;-29
2023/04/13 06:18:31;;;;;;;27.48;16.55;;;20.30;99.90;;;;;;4595077;19;20014;-30
2023/04/13 06:20:06;;;;;;;22.48;14.73;;;20.20;99.90;;;;;;4595396;19;20027;-30
2023/04/13 06:21:37;;;;;;;21.10;13.73;;;20.20;99.90;;;;;;4594236;19;20010;-30
2023/04/13 06:23:09;;;;;;;;;;;20.20;99.90;;;;;;4594652;19;20029;-31
2023/04/13 06:24:40;;;;;;;20.63;13.18;;;20.20;99.90;;;;;;4595434;19;19926;-30
2023/04/13 06:26:11;;;;;;;20.88;13.00;;;20.10;99.90;;;;;;4593807;19;20484;-30
2023/04/13 06:27:43;;;;;;;22.60;12.68;;;20.10;99.90;;;;;;4593415;19;20015;-30
2023/04/13 06:29:14;;;;;;;19.42;12.15;;;20.10;99.90;;;;;;4592349;19;20011;-30
2023/04/13 06:30:46;;;;;;;19.90;12.13;;;20.10;99.90;;;;;;4592585;19;20010;-30
2023/04/13 06:32:31;;;;;;;18.25;12.10;;;20.10;99.90;;;;;;4593192;19;20010;-31
2023/04/13 06:34:03;;;;;;;18.58;12.02;;;20.10;99.90;;;;;;4594475;19;20021;-30
2023/04/13 06:35:55;;;;;;;18.33;12.18;;;20.10;99.90;;;;;;4592012;19;20035;-30
2023/04/13 06:37:27;;;;;;;18.35;12.48;;;20.10;99.90;;;;;;4593241;19;20088;-30
2023/04/13 06:39:00;;;;;;;17.40;12.30;;;20.00;99.90;;;;;;4593755;19;20035;-30
2023/04/13 06:40:32;;;;;;;20.33;12.32;;;20.00;99.90;;;;;;4592825;19;20007;-31
2023/04/13 06:42:05;;;;;;;16.70;11.48;;;20.00;99.90;;;;;;4593290;19;20337;-30
2023/04/13 06:43:39;;;;;;;17.48;11.48;;;20.00;99.90;;;;;;4593568;19;20018;-31
2023/04/13 06:45:11;;;;;;;8.63;6.07;;;20.00;99.90;;;;;;4593350;19;20034;-31
2023/04/13 06:46:43;;;;;;;;;;;19.80;99.90;;;;;;4593516;19;20007;-31
2023/04/13 06:48:14;;;;;;;28.75;22.60;;;19.20;99.90;;;;;;4593064;19;20230;-30
2023/04/13 06:49:46;;;;;;;27.65;24.15;;;18.60;99.90;;;;;;4593075;19;20010;-31
2023/04/13 06:51:17;;;;;;;30.17;25.25;;;18.00;99.90;;;;;;4593206;19;20025;-31
2023/04/13 06:52:49;;;;;;;;;;;17.50;99.90;;;;;;4592202;19;20011;-30
2023/04/13 06:54:20;;;;;;;31.05;24.15;;;17.10;99.90;;;;;;4593339;19;19911;-30
2023/04/13 06:55:52;;;;;;;27.30;22.95;;;16.80;99.90;;;;;;4594956;19;21124;-31
2023/04/13 06:57:23;;;;;;;26.77;21.33;;;16.60;99.90;;;;;;4593865;19;20018;-30
2023/04/13 06:59:00;;;;;;;30.13;23.17;;;16.40;99.90;;;;;;4593937;19;20018;-30
2023/04/13 07:00:31;;;;;;;27.70;22.38;;;16.20;99.90;;;;;;4593336;19;20021;-31
2023/04/13 07:02:04;;;;;;;26.73;20.10;;;16.10;99.90;;;;;;4593252;19;20373;-30
2023/04/13 07:03:36;;;;;;;26.77;21.20;;;16.00;99.90;;;;;;4593489;19;20046;-30
2023/04/13 07:05:10;;;;;;;27.60;21.63;;;15.90;99.90;;;;;;4592468;19;20018;-31
2023/04/13 07:06:42;;;;;;;24.48;20.25;;;15.90;99.90;;;;;;4591670;19;20014;-31
2023/04/13 07:08:13;;;;;;;25.90;20.27;;;15.80;99.90;;;;;;4591419;19;20078;-30
2023/04/13 07:09:45;;;;;;;27.02;21.08;;;15.80;99.90;;;;;;4592848;19;20357;-30
2023/04/13 07:11:16;;;;;;;24.77;20.35;;;15.70;99.90;;;;;;4591374;19;20118;-31
2023/04/13 07:12:48;;;;;;;24.60;20.63;;;15.70;99.90;;;;;;4591978;19;20010;-30
2023/04/13 07:14:20;;;;;;;24.63;19.60;;;15.70;99.90;;;;;;4592067;19;20035;-31
2023/04/13 07:15:51;;;;;;;22.77;19.73;;;15.60;99.90;;;;;;4592415;19;20382;-30
2023/04/13 07:17:22;;;;;;;29.38;21.42;;;15.60;99.90;;;;;;4592512;19;20036;-31
2023/04/13 07:18:59;;;;;;;23.52;20.98;;;15.60;99.90;;;;;;4592011;19;20015;-31
2023/04/13 07:20:30;;;;;;;33.60;23.30;;;15.50;99.90;;;;;;4594578;19;20395;-30
2023/04/13 07:22:04;;;;;;;33.78;25.33;;;15.50;99.90;;;;;;4593648;19;20480;-30
2023/04/13 07:23:39;;;;;;;32.83;24.93;;;15.50;99.90;;;;;;4591713;19;20489;-30
2023/04/13 07:25:10;;;;;;;28.67;21.50;;;15.50;99.90;;;;;;4593994;19;20015;-31
2023/04/13 07:26:41;;;;;;;22.15;18.98;;;15.40;99.90;;;;;;4593504;19;20019;-31
2023/04/13 07:28:12;;;;;;;20.98;17.10;;;15.40;99.90;;;;;;4593864;19;20014;-30
2023/04/13 07:29:44;;;;;;;;;;;15.40;99.90;;;;;;4595028;19;20378;-31
2023/04/13 07:31:15;;;;;;;22.07;16.97;;;15.40;99.90;;;;;;4593000;19;19929;-31
2023/04/13 07:32:47;;;;;;;21.08;16.88;;;15.40;99.90;;;;;;4592943;19;20074;-30
2023/04/13 07:34:18;;;;;;;25.38;17.17;;;15.40;99.90;;;;;;4592624;19;20006;-31
2023/04/13 07:35:53;;;;;;;23.13;18.08;;;15.40;99.90;;;;;;4594836;19;20034;-31
2023/04/13 07:37:24;;;;;;;21.13;15.73;;;15.40;99.90;;;;;;4592221;19;20015;-30
2023/04/13 07:38:55;;;;;;;25.05;16.83;;;15.40;99.90;;;;;;4592750;19;20464;-31
2023/04/13 07:40:26;;;;;;;23.40;16.90;;;15.40;99.90;;;;;;4592784;19;20493;-31
2023/04/13 07:41:58;;;;;;;21.27;15.25;;;15.40;99.90;;;;;;4594689;19;20055;-30
2023/04/13 07:43:29;;;;;;;20.52;15.68;;;15.40;99.90;;;;;;4593224;19;20500;-30
2023/04/13 07:45:00;;;;;;;21.25;16.20;;;15.40;99.90;;;;;;4592046;19;20482;-31
2023/04/13 07:46:32;;;;;;;22.25;15.98;;;15.40;99.90;;;;;;4591420;19;20018;-30
2023/04/13 07:48:04;;;;;;;20.00;16.20;;;15.40;99.90;;;;;;4592173;19;20018;-30
2023/04/13 07:49:36;;;;;;;18.38;14.63;;;15.40;99.90;;;;;;4590308;19;20010;-31
2023/04/13 07:51:18;;;;;;;18.00;14.38;;;15.40;99.90;;;;;;4591029;19;20018;-31
2023/04/13 07:52:49;;;;;;;17.63;13.47;;;15.40;99.90;;;;;;4590299;19;20524;-31
2023/04/13 07:54:21;;;;;;;17.10;13.23;;;15.40;99.90;;;;;;4591100;19;20050;-31
2023/04/13 07:55:53;;;;;;;24.07;18.23;;;15.40;99.90;;;;;;4590246;19;20018;-31
2023/04/13 07:57:24;;;;;;;24.60;18.83;;;15.40;99.90;;;;;;4590265;19;20455;-31
2023/04/13 07:58:56;;;;;;;25.25;19.98;;;15.40;99.90;;;;;;4590552;19;20010;-30
2023/04/13 08:00:27;;;;;;;21.90;17.10;;;15.40;99.90;;;;;;4591009;19;20007;-31
2023/04/13 08:01:59;;;;;;;23.02;16.48;;;15.40;99.90;;;;;;4591293;19;20011;-30
2023/04/13 08:03:34;;;;;;;17.85;14.73;;;15.40;99.90;;;;;;4591412;19;20010;-31
2023/04/13 08:05:07;;;;;;;18.57;13.27;;;15.40;99.90;;;;;;4590937;19;20516;-31
2023/04/13 08:06:39;;;;;;;16.38;12.55;;;15.40;99.90;;;;;;4590729;19;20011;-30
2023/04/13 08:08:11;;;;;;;16.67;12.80;;;15.40;99.90;;;;;;4591779;19;20018;-30
2023/04/13 08:09:42;;;;;;;15.82;12.68;;;15.40;99.90;;;;;;4590022;19;20022;-31
2023/04/13 08:11:14;;;;;;;16.73;11.73;;;15.40;99.90;;;;;;4588656;19;20471;-30
2023/04/13 08:12:46;;;;;;;13.80;11.60;;;15.30;99.90;;;;;;4588361;19;20011;-30
2023/04/13 08:14:36;;;;;;;14.95;11.23;;;15.30;99.90;;;;;;4588347;19;20015;-30
2023/04/13 08:16:08;;;;;;;15.50;11.43;;;15.30;99.90;;;;;;4589821;19;20579;-30
2023/04/13 08:17:39;;;;;;;23.90;15.77;;;15.30;99.90;;;;;;4590864;19;20013;-30
2023/04/13 08:19:12;;;;;;;28.43;18.27;;;15.30;99.90;;;;;;4591182;19;20034;-31
2023/04/13 08:20:44;;;;;;;19.80;14.27;;;15.20;99.90;;;;;;4591341;19;20007;-30
2023/04/13 08:22:15;;;;;;;16.88;13.20;;;15.30;99.90;;;;;;4591217;19;20536;-31
2023/04/13 08:23:46;;;;;;;15.75;12.82;;;15.20;99.90;;;;;;4588963;19;20014;-30
2023/04/13 08:25:18;;;;;;;19.55;13.88;;;15.20;99.90;;;;;;4589543;19;20006;-31
2023/04/13 08:26:59;;;;;;;17.20;15.33;;;15.20;99.90;;;;;;4590423;19;20018;-31
2023/04/13 08:28:31;;;;;;;16.97;14.67;;;15.20;99.90;;;;;;4589323;19;20014;-31
2023/04/13 08:30:04;;;;;;;19.33;15.07;;;15.20;99.90;;;;;;4589704;19;20026;-31
2023/04/13 08:31:35;;;;;;;23.30;16.63;;;15.20;99.90;;;;;;4588311;19;20015;-31
2023/04/13 08:33:07;;;;;;;23.23;17.10;;;15.20;99.90;;;;;;4588522;19;20019;-30
2023/04/13 08:34:39;;;;;;;21.98;17.92;;;15.20;99.90;;;;;;4588937;19;20472;-31
2023/04/13 08:36:10;;;;;;;18.23;15.47;;;15.20;99.90;;;;;;4591421;19;20007;-31
2023/04/13 08:37:43;;;;;;;19.23;15.63;;;15.20;99.90;;;;;;4588729;19;20014;-31
2023/04/13 08:39:14;;;;;;;18.15;15.57;;;15.10;99.90;;;;;;4589745;19;20011;-30
2023/04/13 08:40:45;;;;;;;19.15;14.75;;;15.20;99.90;;;;;;4590167;19;20018;-31
2023/04/13 08:42:17;;;;;;;17.00;13.53;;;15.20;99.90;;;;;;4588559;19;20018;-30
2023/04/13 08:43:49;;;;;;;15.48;12.75;;;15.20;99.90;;;;;;4589629;19;20011;-30
2023/04/13 08:45:21;;;;;;;14.83;12.33;;;15.20;99.90;;;;;;4589282;19;20833;-31
2023/04/13 08:46:53;;;;;;;16.55;12.20;;;15.20;99.90;;;;;;4589737;19;20017;-31
2023/04/13 08:48:26;;;;;;;;;;;15.20;99.90;;;;;;4590636;19;20010;-30
2023/04/13 08:49:57;;;;;;;16.53;10.67;;;15.20;99.90;;;;;;4588617;19;19942;-30
2023/04/13 08:51:30;;;;;;;13.43;10.00;;;15.30;99.90;;;;;;4588710;19;20006;-31
2023/04/13 08:53:02;;;;;;;12.47;8.97;;;15.30;99.90;;;;;;4586949;19;20476;-30
2023/04/13 08:54:34;;;;;;;13.43;9.90;;;15.30;99.90;;;;;;4588020;19;20066;-31
2023/04/13 08:56:09;;;;;;;13.73;9.73;;;15.30;99.90;;;;;;4590273;19;20010;-31
2023/04/13 08:58:00;;;;;;;16.03;9.83;;;15.30;99.90;;;;;;4586975;19;20480;-31
2023/04/13 08:59:31;;;;;;;11.90;8.43;;;15.20;99.90;;;;;;4588809;19;20006;-31
2023/04/13 09:01:05;;;;;;;10.77;8.47;;;15.20;99.90;;;;;;4588316;19;20603;-31
2023/04/13 09:02:36;;;;;;;10.73;7.93;;;15.20;99.90;;;;;;4588520;19;20019;-30
2023/04/13 09:04:10;;;;;;;11.67;8.10;;;15.10;99.90;;;;;;4587819;19;20126;-30
2023/04/13 09:05:42;;;;;;;10.27;7.20;;;15.10;99.90;;;;;;4588282;19;20030;-30
2023/04/13 09:07:17;;;;;;;9.60;7.15;;;15.10;99.90;;;;;;4588113;19;20376;-31
2023/04/13 09:08:48;;;;;;;10.47;7.60;;;15.10;99.90;;;;;;4588525;19;20007;-31
2023/04/13 09:10:21;;;;;;;11.07;8.20;;;15.10;99.90;;;;;;4588205;19;20013;-31
2023/04/13 09:11:54;;;;;;;9.53;7.70;;;15.10;99.90;;;;;;4587513;19;20014;-31
2023/04/13 09:13:26;;;;;;;10.20;7.47;;;15.10;99.90;;;;;;4587752;19;20013;-31
2023/04/13 09:14:57;;;;;;;8.70;6.97;;;15.10;99.90;;;;;;4587884;19;20018;-31
2023/04/13 09:16:36;;;;;;;11.53;7.63;;;15.10;99.90;;;;;;4586790;19;20011;-31
2023/04/13 09:18:09;;;;;;;8.73;7.23;;;15.10;99.90;;;;;;4586501;19;20007;-31
2023/04/13 09:19:41;;;;;;;10.27;7.37;;;15.10;99.90;;;;;;4586376;19;20044;-31
2023/04/13 09:21:13;;;;;;;8.70;7.10;;;15.10;99.90;;;;;;4586661;19;20006;-31
2023/04/13 09:22:47;;;;;;;12.40;7.93;;;15.10;99.90;;;;;;4585820;19;20360;-30
2023/04/13 09:24:21;;;;;;;11.67;8.47;;;15.20;99.90;;;;;;4585699;19;20489;-30
2023/04/13 09:26:07;;;;;;;10.40;8.45;;;15.10;99.90;;;;;;4587713;19;20358;-31
2023/04/13 09:27:39;;;;;;;12.80;8.67;;;15.20;99.90;;;;;;4588542;19;20030;-31
2023/04/13 09:29:15;;;;;;;10.77;8.77;;;15.10;99.90;;;;;;4588730;19;20011;-31
2023/04/13 09:30:46;;;;;;;13.00;9.43;;;15.10;99.90;;;;;;4589721;19;20357;-31
2023/04/13 09:32:25;;;;;;;11.48;9.15;;;15.10;99.90;;;;;;4589066;19;20014;-31
2023/04/13 09:33:57;;;;;;;13.37;9.40;;;15.10;99.90;;;;;;4590296;19;20495;-30
2023/04/13 09:35:30;;;;;;;13.40;8.32;;;15.10;99.90;;;;;;4590952;19;20015;-31
2023/04/13 09:37:11;;;;;;;10.27;8.47;;;15.10;99.90;;;;;;4592590;19;20014;-31
2023/04/13 09:38:45;;;;;;;10.27;7.37;;;15.10;99.90;;;;;;4593530;19;20011;-31
2023/04/13 09:40:19;;;;;;;12.77;8.00;;;15.10;99.90;;;;;;4592052;19;20007;-31
2023/04/13 09:41:53;;;;;;;11.40;8.97;;;15.20;99.90;;;;;;4592144;19;20015;-31
2023/04/13 09:43:33;;;;;;;11.00;8.10;;;15.20;99.90;;;;;;4590349;19;20014;-30
2023/04/13 09:45:05;;;;;;;11.43;7.87;;;15.20;99.90;;;;;;4592221;19;20471;-31
2023/04/13 09:46:36;;;;;;;11.90;8.15;;;15.20;99.90;;;;;;4591994;19;20014;-30
2023/04/13 09:48:17;;;;;;;12.43;9.70;;;15.20;99.90;;;;;;4591520;19;20011;-30
2023/04/13 09:49:49;;;;;;;11.77;9.15;;;15.20;99.90;;;;;;4593174;19;20468;-31
2023/04/13 09:51:20;;;;;;;14.55;10.07;;;15.20;99.90;;;;;;4594943;19;20009;-31
2023/04/13 09:53:01;;;;;;;;;;;15.20;99.90;;;;;;4592410;19;20021;-31
2023/04/13 09:54:33;;;;;;;12.90;9.67;;;15.20;99.90;;;;;;4594577;19;19915;-30
2023/04/13 09:56:04;;;;;;;;;;;15.30;99.90;;;;;;4594829;19;20011;-31
2023/04/13 09:57:35;;;;;;;12.95;8.30;;;15.30;99.90;;;;;;4593307;19;19946;-31
2023/04/13 09:59:08;;;;;;;10.67;8.83;;;15.30;99.90;;;;;;4593273;19;20018;-31
2023/04/13 10:00:42;;;;;;;12.80;8.83;;;15.30;99.90;;;;;;4592943;19;20019;-30
2023/04/13 10:02:13;;;;;;;11.20;8.97;;;15.30;99.90;;;;;;4592292;19;20476;-31
2023/04/13 10:03:45;;;;;;;10.57;8.88;;;15.30;99.90;;;;;;4590980;19;20014;-31
2023/04/13 10:05:17;;;;;;;10.75;8.00;;;15.30;99.90;;;;;;4591895;19;20014;-31
2023/04/13 10:06:49;;;;;;;12.93;7.70;;;15.40;99.90;;;;;;4593578;19;20019;-31
2023/04/13 10:08:21;;;;;;;7.78;5.75;;;15.60;99.90;;;;;;4593863;19;20006;-31
2023/04/13 10:09:58;;;;;;;11.43;7.45;;;15.80;99.90;;;;;;4593959;19;20374;-31
2023/04/13 10:11:33;;;;;;;10.35;7.22;;;15.90;99.90;;;;;;4592291;19;20018;-31
2023/04/13 10:13:15;;;;;;;13.48;8.50;;;15.90;99.90;;;;;;4590542;19;20023;-31
2023/04/13 10:14:47;;;;;;;;;;;15.90;99.90;;;;;;4592215;19;20014;-31
2023/04/13 10:16:28;;;;;;;11.75;8.80;;;15.70;99.90;;;;;;4591357;19;19911;-31
2023/04/13 10:18:25;;;;;;;12.23;8.85;;;15.70;99.90;;;;;;4592597;19;20006;-31
